Time;durP1;ratioP1;P1;durP2;ratioP2;P2;SDS_P1;SDS_P2;PMS_P1;PMS_P2;Temp;Humidity;BMP_temperature;BMP_pressure;BME280_temperature;BME280_humidity;BME280_pressure;Samples;Min_cycle;Max_cycle;Signal;HPM_P1;HPM_P2
2023/11/28 00:07:00;;;;;;;;;;;3.10;99.90;;;;;;21180168;27;19911;-87
2023/11/28 00:17:01;;;;;;;;;;;3.20;99.90;;;;;;21174551;27;19916;-87
2023/11/28 00:27:03;;;;;;;;;;;3.20;99.90;;;;;;21176763;28;19935;-87
2023/11/28 00:37:04;;;;;;;;;;;3.20;99.90;;;;;;21164445;27;19923;-87
2023/11/28 00:47:05;;;;;;;;;;;3.30;99.90;;;;;;21201247;27;20010;-88
2023/11/28 00:57:07;;;;;;;;;;;3.30;99.90;;;;;;21201433;27;19922;-87
2023/11/28 01:07:08;;;;;;;;;;;3.40;99.90;;;;;;21207587;27;19919;-87
2023/11/28 01:17:09;;;;;;;;;;;3.40;99.90;;;;;;21210975;27;19915;-86
2023/11/28 01:27:10;;;;;;;;;;;3.50;99.90;;;;;;21200696;27;19915;-86
2023/11/28 01:37:10;;;;;;;;;;;3.50;99.90;;;;;;21200127;27;19923;-87
2023/11/28 01:47:11;;;;;;;;;;;3.50;99.90;;;;;;21203020;27;19912;-86
2023/11/28 01:57:12;;;;;;;;;;;3.60;99.90;;;;;;21214664;27;19983;-88
2023/11/28 02:07:14;;;;;;;;;;;3.60;99.90;;;;;;21180975;27;20029;-86
2023/11/28 02:17:16;;;;;;;;;;;3.60;99.90;;;;;;21216996;27;19919;-86
2023/11/28 02:27:17;;;;;;;;;;;3.70;99.90;;;;;;21180148;27;19918;-87
2023/11/28 02:37:17;;;;;;;;;;;3.70;99.90;;;;;;21203081;27;19916;-86
2023/11/28 02:47:18;;;;;;;;;;;3.80;99.90;;;;;;21203289;27;19911;-87
2023/11/28 02:57:19;;;;;;;;;;;3.90;99.90;;;;;;21186887;27;20373;-87
2023/11/28 03:07:20;;;;;;;;;;;4.00;99.90;;;;;;21197623;27;19912;-87
2023/11/28 03:17:20;;;;;;;;;;;4.00;99.90;;;;;;21198293;27;19916;-87
2023/11/28 03:27:21;;;;;;;;;;;4.10;99.90;;;;;;21194500;27;19919;-87
2023/11/28 03:37:22;;;;;;;;;;;4.20;99.90;;;;;;21205953;27;19926;-87
2023/11/28 03:47:23;;;;;;;;;;;4.50;99.90;;;;;;21199682;27;19990;-88
2023/11/28 03:57:23;;;;;;;;;;;4.70;99.90;;;;;;21214174;27;20263;-86
2023/11/28 04:07:24;;;;;;;;;;;5.10;99.90;;;;;;21195403;27;19932;-85
2023/11/28 04:17:25;;;;;;;;;;;5.20;99.90;;;;;;21189026;27;19919;-86
2023/11/28 04:27:26;;;;;;;;;;;5.20;99.90;;;;;;21208697;27;19927;-86
2023/11/28 04:37:27;;;;;;;;;;;5.30;99.90;;;;;;21202495;27;19915;-86
2023/11/28 04:47:29;;;;;;;;;;;5.40;99.90;;;;;;21204790;27;19911;-86
2023/11/28 04:57:30;;;;;;;;;;;5.40;99.90;;;;;;21192245;28;20545;-84
2023/11/28 05:07:31;;;;;;;;;;;5.50;99.90;;;;;;21211918;28;19995;-88
2023/11/28 05:17:32;;;;;;;;;;;5.50;99.90;;;;;;21219742;27;19916;-86
2023/11/28 05:27:32;;;;;;;;;;;5.60;99.90;;;;;;21187257;27;19922;-87
2023/11/28 05:37:34;;;;;;;;;;;5.50;99.90;;;;;;21210129;27;19969;-88
2023/11/28 05:47:36;;;;;;;;;;;5.60;99.90;;;;;;21196363;27;19912;-85
2023/11/28 05:57:37;;;;;;;;;;;5.50;99.90;;;;;;21200252;27;19923;-85
2023/11/28 06:07:39;;;;;;;;;;;5.50;99.90;;;;;;21186923;27;20322;-85
2023/11/28 06:17:41;;;;;;;;;;;5.40;99.90;;;;;;21164846;27;20413;-87
2023/11/28 06:27:42;;;;;;;;;;;5.40;99.90;;;;;;21181766;27;20409;-87
2023/11/28 06:37:43;;;;;;;;;;;5.30;99.90;;;;;;21221707;27;19919;-88
2023/11/28 06:47:43;;;;;;;;;;;5.10;99.90;;;;;;21185084;27;19912;-89
2023/11/28 06:57:44;;;;;;;;;;;5.00;99.90;;;;;;21163949;27;19919;-88
2023/11/28 07:07:45;;;;;;;;;;;5.00;99.90;;;;;;21202731;27;19973;-88
2023/11/28 07:17:45;;;;;;;;;;;4.90;99.90;;;;;;21170297;27;20003;-87
2023/11/28 07:27:46;;;;;;;;;;;4.90;99.90;;;;;;21207005;27;19912;-84
2023/11/28 07:37:47;;;;;;;;;;;4.90;99.90;;;;;;21189827;27;19916;-87
2023/11/28 07:47:47;;;;;;;;;;;4.90;99.90;;;;;;21202254;27;19912;-85
2023/11/28 07:57:48;;;;;;;;;;;4.90;99.90;;;;;;21192607;27;19915;-86
2023/11/28 08:07:50;;;;;;;;;;;4.70;99.90;;;;;;21212284;27;19912;-86
2023/11/28 08:17:51;;;;;;;;;;;4.60;99.90;;;;;;21203444;27;19917;-87
2023/11/28 08:27:52;;;;;;;;;;;4.60;99.90;;;;;;21209154;27;19918;-87
2023/11/28 08:37:53;;;;;;;;;;;4.60;99.90;;;;;;21213842;27;19998;-86
2023/11/28 08:47:53;;;;;;;;;;;4.60;99.90;;;;;;21187644;28;19911;-86
2023/11/28 08:57:54;;;;;;;;;;;4.60;99.90;;;;;;21215459;27;20370;-87
2023/11/28 09:07:57;;;;;;;;;;;4.60;99.90;;;;;;21215579;27;20293;-87
2023/11/28 09:17:57;;;;;;;;;;;4.60;99.90;;;;;;21203658;27;19915;-87
2023/11/28 09:27:58;;;;;;;;;;;4.40;99.90;;;;;;21190929;27;19911;-90
2023/11/28 09:37:59;;;;;;;;;;;4.10;99.90;;;;;;21209296;27;20378;-89
2023/11/28 09:48:04;;;;;;;;;;;3.80;99.90;;;;;;21192496;27;19918;-86
2023/11/28 09:58:05;;;;;;;;;;;3.80;99.90;;;;;;21199400;27;20309;-88
2023/11/28 10:08:07;;;;;;;;;;;4.00;99.90;;;;;;21188556;27;20290;-88
2023/11/28 10:18:08;;;;;;;;;;;4.10;99.90;;;;;;21206020;27;20386;-86
2023/11/28 10:28:12;;;;;;;;;;;4.20;99.90;;;;;;21195330;27;20374;-86
2023/11/28 10:38:13;;;;;;;;;;;4.20;99.90;;;;;;21196933;27;20272;-87
2023/11/28 10:48:14;;;;;;;;;;;4.00;99.90;;;;;;21215795;27;19911;-87
2023/11/28 10:58:15;;;;;;;;;;;4.10;99.90;;;;;;21206861;27;19912;-87
2023/11/28 11:08:16;;;;;;;;;;;3.90;99.90;;;;;;21176725;27;19911;-87
2023/11/28 11:18:16;;;;;;;;;;;4.10;99.90;;;;;;21214076;27;19961;-87
2023/11/28 11:28:18;;;;;;;;;;;4.30;99.90;;;;;;21183520;27;19943;-88
2023/11/28 11:38:25;;;;;;;;;;;4.30;99.90;;;;;;21201861;27;19923;-87
2023/11/28 11:48:27;;;;;;;;;;;4.00;99.90;;;;;;21202019;27;19912;-86
2023/11/28 11:58:28;;;;;;;;;;;3.70;99.90;;;;;;21198003;27;20048;-87
2023/11/28 12:08:31;;;;;;;;;;;3.70;99.90;;;;;;21214049;27;19911;-82
2023/11/28 12:18:32;;;;;;;;;;;3.70;99.90;;;;;;21196196;27;19930;-83
2023/11/28 12:28:33;;;;;;;;;;;3.80;99.90;;;;;;21199017;27;20306;-84
2023/11/28 12:38:36;;;;;;;;;;;3.90;99.90;;;;;;21211706;27;19916;-83
2023/11/28 12:48:37;;;;;;;;;;;3.70;99.90;;;;;;21223609;27;19980;-85
2023/11/28 12:58:37;;;;;;;;;;;3.70;99.90;;;;;;21218707;27;19915;-86
2023/11/28 13:08:38;;;;;;;;;;;3.80;99.90;;;;;;21215712;27;19959;-86
2023/11/28 13:18:39;;;;;;;;;;;4.80;99.90;;;;;;21233560;27;19911;-86
2023/11/28 13:28:41;;;;;;;;;;;4.70;99.90;;;;;;21213289;27;19919;-87
2023/11/28 13:38:42;;;;;;;;;;;4.30;99.90;;;;;;21251032;27;19915;-86
2023/11/28 13:48:43;;;;;;;;;;;4.10;99.90;;;;;;21206196;27;20326;-86
2023/11/28 13:58:44;;;;;;;;;;;4.00;99.90;;;;;;21190720;27;20045;-85
2023/11/28 14:08:44;;;;;;;;;;;3.80;99.90;;;;;;21207199;27;19916;-85
2023/11/28 14:18:45;;;;;;;;;;;3.90;99.90;;;;;;21205694;27;19952;-85
2023/11/28 14:28:46;;;;;;;;;;;3.70;99.90;;;;;;21218014;27;19915;-84
2023/11/28 14:38:47;;;;;;;;;;;3.70;99.90;;;;;;21191052;27;19916;-84
2023/11/28 14:48:49;;;;;;;;;;;3.70;99.90;;;;;;21179895;27;19955;-85
2023/11/28 14:58:52;;;;;;;;;;;3.60;99.90;;;;;;21220060;27;19912;-85
2023/11/28 15:08:53;;;;;;;;;;;3.40;99.90;;;;;;21169795;27;19969;-86
2023/11/28 15:18:54;;;;;;;;;;;3.40;99.90;;;;;;21216111;27;20366;-86
2023/11/28 15:28:54;;;;;;;;;;;3.10;99.90;;;;;;21210342;27;20263;-84
2023/11/28 15:38:55;;;;;;;;;;;3.10;99.90;;;;;;21201158;27;20044;-86
2023/11/28 15:48:56;;;;;;;;;;;3.00;99.90;;;;;;21202829;27;19916;-87
2023/11/28 15:58:56;;;;;;;;;;;2.90;99.90;;;;;;21196258;27;19912;-85
2023/11/28 16:08:57;;;;;;;;;;;2.80;99.90;;;;;;21210299;27;19915;-86
2023/11/28 16:19:00;;;;;;;;;;;2.70;99.90;;;;;;21201172;27;20194;-86
2023/11/28 16:29:00;;;;;;;;;;;2.60;99.90;;;;;;21155211;27;19915;-84
2023/11/28 16:39:07;;;;;;;;;;;2.50;99.90;;;;;;21178277;28;20015;-85
2023/11/28 16:49:08;;;;;;;;;;;2.60;99.90;;;;;;21138749;28;19915;-85
2023/11/28 16:59:08;;;;;;;;;;;2.50;99.90;;;;;;21198321;27;19918;-88
2023/11/28 17:09:10;;;;;;;;;;;2.40;99.90;;;;;;21202356;27;19955;-86
2023/11/28 17:19:10;;;;;;;;;;;2.30;99.90;;;;;;21189940;27;19923;-86
2023/11/28 17:29:11;;;;;;;;;;;2.30;99.90;;;;;;21207196;27;19992;-85
2023/11/28 17:39:12;;;;;;;;;;;2.30;99.90;;;;;;21222815;27;19937;-86
2023/11/28 17:49:15;;;;;;;;;;;2.30;99.90;;;;;;21176503;27;19923;-85
2023/11/28 17:59:16;;;;;;;;;;;2.20;99.90;;;;;;21234809;27;20006;-85
2023/11/28 18:09:18;;;;;;;;;;;2.20;99.90;;;;;;21215775;27;19923;-88
2023/11/28 18:19:19;;;;;;;;;;;2.20;99.90;;;;;;21235198;27;19919;-86
2023/11/28 18:29:21;;;;;;;;;;;2.20;99.90;;;;;;21232430;27;20396;-84
2023/11/28 18:39:22;;;;;;;;;;;2.10;99.90;;;;;;21233889;27;19916;-85
2023/11/28 18:49:23;;;;;;;;;;;2.10;99.90;;;;;;21205028;27;19916;-83
2023/11/28 18:59:23;;;;;;;;;;;2.00;99.90;;;;;;21217470;27;19916;-85
2023/11/28 19:09:24;;;;;;;;;;;2.00;99.90;;;;;;21196592;27;20427;-85
2023/11/28 19:19:28;;;;;;;;;;;1.90;99.90;;;;;;21171776;27;19957;-85
2023/11/28 19:29:28;;;;;;;;;;;2.00;99.90;;;;;;21237667;27;19915;-83
2023/11/28 19:39:29;;;;;;;;;;;1.90;99.90;;;;;;21228523;27;19955;-84
2023/11/28 19:49:30;;;;;;;;;;;1.80;99.90;;;;;;21188964;27;19916;-84
2023/11/28 19:59:31;;;;;;;;;;;1.70;99.90;;;;;;21203346;27;19958;-84
2023/11/28 20:09:31;;;;;;;;;;;1.60;99.90;;;;;;21204997;27;19962;-85
2023/11/28 20:19:33;;;;;;;;;;;1.60;99.90;;;;;;21185206;27;19912;-85
2023/11/28 20:29:36;;;;;;;;;;;1.70;99.90;;;;;;21195776;27;19972;-86
2023/11/28 20:39:37;;;;;;;;;;;1.80;99.90;;;;;;21223169;28;19915;-84
2023/11/28 20:49:38;;;;;;;;;;;1.80;99.90;;;;;;21194360;28;19923;-86
2023/11/28 20:59:39;;;;;;;;;;;1.80;99.90;;;;;;21202727;27;19916;-86
2023/11/28 21:09:40;;;;;;;;;;;1.70;99.90;;;;;;21194012;27;19915;-85
2023/11/28 21:19:42;;;;;;;;;;;1.60;99.90;;;;;;21154646;27;19934;-85
2023/11/28 21:29:42;;;;;;;;;;;1.40;99.90;;;;;;21216222;27;19922;-84
2023/11/28 21:39:43;;;;;;;;;;;1.30;99.90;;;;;;21202325;27;19919;-83
2023/11/28 21:49:49;;;;;;;;;;;1.20;99.90;;;;;;21214586;27;19926;-85
2023/11/28 21:59:50;;;;;;;;;;;1.20;99.90;;;;;;21181830;27;19929;-84
2023/11/28 22:09:50;;;;;;;;;;;1.10;99.90;;;;;;21181550;27;19993;-85
2023/11/28 22:19:51;;;;;;;;;;;1.00;99.90;;;;;;21180799;27;19918;-85
2023/11/28 22:29:52;;;;;;;;;;;1.00;99.90;;;;;;21178734;27;19923;-85
2023/11/28 22:39:52;;;;;;;;;;;1.00;99.90;;;;;;21157926;27;19916;-85
2023/11/28 22:49:53;;;;;;;;;;;0.80;99.90;;;;;;21141098;27;19923;-85
2023/11/28 22:59:54;;;;;;;;;;;0.80;99.90;;;;;;21144206;27;19998;-87
2023/11/28 23:09:55;;;;;;;;;;;0.70;99.90;;;;;;21150674;27;19923;-86
2023/11/28 23:19:55;;;;;;;;;;;0.60;99.90;;;;;;21155598;27;19911;-86
2023/11/28 23:29:56;;;;;;;;;;;0.50;99.90;;;;;;21180483;27;19916;-86
2023/11/28 23:39:57;;;;;;;;;;;0.40;99.90;;;;;;21174417;27;20290;-85
2023/11/28 23:49:57;;;;;;;;;;;0.40;99.90;;;;;;21154857;27;19915;-86
2023/11/28 23:59:58;;;;;;;;;;;0.40;99.90;;;;;;21171362;27;19919;-88
